Au Sable, Michigan
Current Conditions -  °F | °C
As of 6:14 AM on Thursday 23 Oct 2014 (Local Time) from KOSC Reporting Station
Clear Clear  
Wind Chill: 25°   Ceiling: Unl
Heat Index: 25°   Visibility: 7mi
Dew Point: 23°   Wind: 0mph
Humidity: 93%   Direction: NA
Pressure: 30.24"   Gusts: NA
Location:  44.4539°N, 83.4813°W
Report Text: KOSC 231014Z AUTO 00000KT 7SM CLR M04/M05 A3024 RMK AO2 T10411051
Loading
Personal Weather Stations






























Interactive Weather Map
Tropical Storm Tracking
New forecast layout! Learn more

10-Day Weather Forecast

Advertisements
Track Severe Weather on mobile